Time;durP1;ratioP1;P1;durP2;ratioP2;P2;SDS_P1;SDS_P2;PMS_P1;PMS_P2;Temp;Humidity;BMP_temperature;BMP_pressure;BME280_temperature;BME280_humidity;BME280_pressure;Samples;Min_cycle;Max_cycle;Signal;HPM_P1;HPM_P2
2022/06/16 00:01:01;;;;;;;;;;;20.90;63.30;;;;;;5102759;28;19912;-71
2022/06/16 00:03:27;;;;;;;;;;;20.90;63.30;;;;;;5103615;28;19920;-71
2022/06/16 00:05:52;;;;;;;;;;;20.80;63.00;;;;;;5100264;28;19919;-71
2022/06/16 00:08:18;;;;;;;;;;;20.80;63.10;;;;;;5103929;28;19922;-70
2022/06/16 00:13:33;;;;;;;;;;;20.70;63.40;;;;;;5104001;28;19938;-71
2022/06/16 00:15:59;;;;;;;;;;;20.70;63.30;;;;;;5104444;28;20439;-71
2022/06/16 00:18:25;;;;;;;;;;;20.60;63.40;;;;;;5095714;28;19920;-70
2022/06/16 00:20:50;;;;;;;;;;;20.60;63.30;;;;;;5101881;28;19916;-70
2022/06/16 00:23:16;;;;;;;;;;;20.60;63.40;;;;;;5103417;28;20675;-70
2022/06/16 00:25:42;;;;;;;;;;;20.60;63.50;;;;;;5105416;27;20163;-70
2022/06/16 00:28:07;;;;;;;;;;;20.50;63.10;;;;;;5103097;28;19916;-70
2022/06/16 00:30:33;;;;;;;;;;;20.50;63.40;;;;;;5105225;28;19923;-70
2022/06/16 00:32:58;;;;;;;;;;;20.50;63.30;;;;;;5104110;28;19915;-70
2022/06/16 00:35:24;;;;;;;;;;;20.40;63.40;;;;;;5098640;28;19958;-70
2022/06/16 00:37:50;;;;;;;;;;;20.40;63.50;;;;;;5105963;28;19911;-69
2022/06/16 00:40:15;;;;;;;;;;;20.40;63.50;;;;;;5096846;28;19989;-70
2022/06/16 00:42:42;;;;;;;;;;;20.30;63.70;;;;;;5106201;28;20372;-70
2022/06/16 00:45:26;;;;;;;;;;;20.30;63.60;;;;;;5097285;28;20766;-70
2022/06/16 00:47:52;;;;;;;;;;;20.30;64.40;;;;;;5103962;28;19915;-70
2022/06/16 00:50:18;;;;;;;;;;;20.20;63.60;;;;;;5099929;28;19916;-71
2022/06/16 00:52:43;;;;;;;;;;;20.20;63.60;;;;;;5105966;28;19920;-70
2022/06/16 00:55:14;;;;;;;;;;;20.20;63.70;;;;;;5099495;28;19912;-70
2022/06/16 00:57:45;;;;;;;;;;;20.20;63.60;;;;;;5103884;28;20307;-70
2022/06/16 01:00:18;;;;;;;;;;;20.10;63.60;;;;;;5100528;28;20057;-70
2022/06/16 01:02:44;;;;;;;;;;;20.10;63.80;;;;;;5104375;28;19920;-70
2022/06/16 01:05:09;;;;;;;;;;;20.10;63.90;;;;;;5097556;28;19923;-70
2022/06/16 01:07:37;;;;;;;;;;;20.10;63.80;;;;;;5105659;28;19912;-70
2022/06/16 01:10:03;;;;;;;;;;;20.00;63.70;;;;;;5102662;28;19939;-71
2022/06/16 01:15:56;;;;;;;;;;;19.90;63.80;;;;;;5090730;28;19943;-70
2022/06/16 01:18:44;;;;;;;;;;;19.90;63.90;;;;;;5099819;28;20774;-70
2022/06/16 01:21:27;;;;;;;;;;;19.90;63.90;;;;;;5090791;28;20641;-71
2022/06/16 01:23:52;;;;;;;;;;;19.80;63.80;;;;;;5099870;28;19926;-70
2022/06/16 01:26:45;;;;;;;;;;;19.80;63.90;;;;;;5100310;28;19915;-70
2022/06/16 01:29:10;;;;;;;;;;;19.80;64.00;;;;;;5100065;28;19977;-70
2022/06/16 01:31:39;;;;;;;;;;;19.80;64.10;;;;;;5093954;28;20322;-70
2022/06/16 01:34:07;;;;;;;;;;;19.70;64.10;;;;;;5102259;28;19926;-70
2022/06/16 01:36:54;;;;;;;;;;;19.70;64.00;;;;;;5097682;28;19948;-70
2022/06/16 01:39:19;;;;;;;;;;;19.70;64.00;;;;;;5105229;28;19961;-70
2022/06/16 01:41:51;;;;;;;;;;;19.70;64.10;;;;;;5096078;28;19939;-70
2022/06/16 01:44:21;;;;;;;;;;;19.60;64.10;;;;;;5104581;28;19980;-71
2022/06/16 01:46:51;;;;;;;;;;;19.60;64.00;;;;;;5097236;28;19996;-70
2022/06/16 01:49:22;;;;;;;;;;;19.60;64.10;;;;;;5105107;28;19961;-70
2022/06/16 01:51:48;;;;;;;;;;;19.60;64.10;;;;;;5096149;28;19920;-70
2022/06/16 01:54:23;;;;;;;;;;;19.50;64.10;;;;;;5104736;28;20391;-70
2022/06/16 01:56:55;;;;;;;;;;;19.50;64.10;;;;;;5100023;28;20481;-70
2022/06/16 01:59:26;;;;;;;;;;;19.50;64.20;;;;;;5104654;28;19915;-70
2022/06/16 02:01:56;;;;;;;;;;;19.40;64.20;;;;;;5098607;28;19961;-70
2022/06/16 02:04:28;;;;;;;;;;;19.40;64.20;;;;;;5105138;28;19986;-70
2022/06/16 02:06:57;;;;;;;;;;;19.40;64.20;;;;;;5092446;28;20312;-70
2022/06/16 02:09:27;;;;;;;;;;;19.30;64.20;;;;;;5105026;28;19916;-71
2022/06/16 02:11:55;;;;;;;;;;;19.40;64.30;;;;;;5099214;28;19993;-70
2022/06/16 02:14:20;;;;;;;;;;;19.30;64.20;;;;;;5102886;28;19922;-70
2022/06/16 02:16:47;;;;;;;;;;;19.30;64.80;;;;;;5098868;28;19912;-70
2022/06/16 02:19:14;;;;;;;;;;;19.30;64.20;;;;;;5102034;28;19977;-70
2022/06/16 02:21:42;;;;;;;;;;;19.20;64.30;;;;;;5096971;28;19924;-70
2022/06/16 02:24:08;;;;;;;;;;;19.30;64.20;;;;;;5102556;28;20010;-70
2022/06/16 02:26:34;;;;;;;;;;;19.20;64.30;;;;;;5103685;28;19912;-70
2022/06/16 02:29:01;;;;;;;;;;;19.20;64.40;;;;;;5100269;28;20467;-70
2022/06/16 02:31:49;;;;;;;;;;;19.20;64.30;;;;;;5103541;28;19919;-70
2022/06/16 02:34:23;;;;;;;;;;;19.10;65.00;;;;;;5101921;28;19927;-70
2022/06/16 02:37:08;;;;;;;;;;;19.20;64.40;;;;;;5101996;28;19947;-70
2022/06/16 02:39:33;;;;;;;;;;;19.10;64.40;;;;;;5101547;28;19916;-70
2022/06/16 02:42:01;;;;;;;;;;;19.10;64.50;;;;;;5107288;28;20430;-70
2022/06/16 02:44:26;;;;;;;;;;;19.10;64.40;;;;;;5104858;28;20332;-70
2022/06/16 02:47:14;;;;;;;;;;;19.00;64.50;;;;;;5105167;28;19919;-70
2022/06/16 02:49:43;;;;;;;;;;;19.00;64.50;;;;;;5102236;28;19938;-70
2022/06/16 02:52:14;;;;;;;;;;;19.00;64.50;;;;;;5107657;28;20286;-70
2022/06/16 02:54:51;;;;;;;;;;;18.90;64.50;;;;;;5105690;28;20331;-70
2022/06/16 02:57:22;;;;;;;;;;;19.00;64.30;;;;;;5102751;27;20039;-70
2022/06/16 02:59:53;;;;;;;;;;;18.90;64.60;;;;;;5102983;28;20553;-70
2022/06/16 03:02:20;;;;;;;;;;;18.90;64.50;;;;;;5096025;28;19916;-70
2022/06/16 03:04:50;;;;;;;;;;;18.90;64.60;;;;;;5103364;28;19923;-70
2022/06/16 03:07:16;;;;;;;;;;;18.90;64.70;;;;;;5106589;28;20666;-70
2022/06/16 03:09:42;;;;;;;;;;;18.80;64.70;;;;;;5105444;28;19959;-70
2022/06/16 03:12:08;;;;;;;;;;;18.80;64.80;;;;;;5104239;28;20327;-70
2022/06/16 03:14:34;;;;;;;;;;;18.80;64.70;;;;;;5105272;28;19919;-70
2022/06/16 03:17:01;;;;;;;;;;;18.80;64.80;;;;;;5102955;28;20457;-70
2022/06/16 03:19:27;;;;;;;;;;;18.70;64.60;;;;;;5103786;28;19912;-70
2022/06/16 03:21:54;;;;;;;;;;;18.70;64.80;;;;;;5105015;28;19911;-70
2022/06/16 03:24:20;;;;;;;;;;;18.70;64.70;;;;;;5107774;28;19934;-70
2022/06/16 03:26:45;;;;;;;;;;;18.70;64.90;;;;;;5104454;28;19916;-70
2022/06/16 03:29:11;;;;;;;;;;;18.60;64.90;;;;;;5105563;28;19916;-69
2022/06/16 03:31:37;;;;;;;;;;;18.60;64.90;;;;;;5101137;28;19947;-70
2022/06/16 03:34:02;;;;;;;;;;;18.60;64.90;;;;;;5108174;28;19920;-70
2022/06/16 03:36:28;;;;;;;;;;;18.60;65.00;;;;;;5103130;28;20276;-70
2022/06/16 03:38:53;;;;;;;;;;;18.60;64.90;;;;;;5103064;28;19986;-70
2022/06/16 03:41:19;;;;;;;;;;;18.50;64.80;;;;;;5098810;28;19950;-70
2022/06/16 03:43:44;;;;;;;;;;;18.50;65.00;;;;;;5106182;28;20391;-70
2022/06/16 03:46:11;;;;;;;;;;;18.50;64.80;;;;;;5102653;28;19916;-70
2022/06/16 03:48:37;;;;;;;;;;;18.50;65.00;;;;;;5107714;28;19916;-70
2022/06/16 03:51:05;;;;;;;;;;;18.40;65.00;;;;;;5102523;28;20018;-70
2022/06/16 03:53:30;;;;;;;;;;;18.40;65.10;;;;;;5107606;28;20480;-70
2022/06/16 03:55:56;;;;;;;;;;;18.40;65.20;;;;;;5102154;28;19946;-70
2022/06/16 03:58:21;;;;;;;;;;;18.40;65.20;;;;;;5105387;28;19990;-70
2022/06/16 04:00:47;;;;;;;;;;;18.40;65.00;;;;;;5103797;28;19920;-70
2022/06/16 04:05:56;;;;;;;;;;;18.30;65.10;;;;;;5098085;28;20535;-70
2022/06/16 04:08:22;;;;;;;;;;;18.30;65.30;;;;;;5104304;28;19915;-70
2022/06/16 04:10:48;;;;;;;;;;;18.30;65.10;;;;;;5105411;28;19916;-70
2022/06/16 04:13:14;;;;;;;;;;;18.30;65.20;;;;;;5103150;28;20641;-70
2022/06/16 04:15:39;;;;;;;;;;;18.20;65.30;;;;;;5104906;28;19922;-70
2022/06/16 04:18:05;;;;;;;;;;;18.20;65.20;;;;;;5103651;28;20303;-70
2022/06/16 04:20:31;;;;;;;;;;;18.20;65.70;;;;;;5100585;28;20008;-70
2022/06/16 04:22:57;;;;;;;;;;;18.20;65.20;;;;;;5103558;28;19912;-70
2022/06/16 04:25:23;;;;;;;;;;;18.10;65.00;;;;;;5105062;28;19916;-70
2022/06/16 04:27:49;;;;;;;;;;;18.10;65.20;;;;;;5098115;28;19919;-70
2022/06/16 04:30:15;;;;;;;;;;;18.10;65.90;;;;;;5104540;28;19920;-70
2022/06/16 04:32:41;;;;;;;;;;;18.10;65.80;;;;;;5101318;28;19919;-70
2022/06/16 04:35:07;;;;;;;;;;;18.10;65.60;;;;;;5105580;28;19919;-70
2022/06/16 04:37:33;;;;;;;;;;;18.10;65.60;;;;;;5098214;27;20034;-70
2022/06/16 04:39:58;;;;;;;;;;;18.00;65.50;;;;;;5104933;28;19912;-70
2022/06/16 04:42:24;;;;;;;;;;;18.00;65.50;;;;;;5101959;28;20518;-70
2022/06/16 04:44:49;;;;;;;;;;;18.00;65.40;;;;;;5102157;28;19916;-70
2022/06/16 04:47:15;;;;;;;;;;;18.00;65.50;;;;;;5101567;28;19999;-70
2022/06/16 04:49:40;;;;;;;;;;;18.00;65.60;;;;;;5102197;28;19930;-70
2022/06/16 04:52:06;;;;;;;;;;;18.00;65.50;;;;;;5103955;28;19926;-70
2022/06/16 04:54:31;;;;;;;;;;;17.90;65.60;;;;;;5099550;28;20681;-70
2022/06/16 04:56:57;;;;;;;;;;;17.90;65.50;;;;;;5104010;28;19988;-70
2022/06/16 04:59:23;;;;;;;;;;;17.90;65.70;;;;;;5099437;28;19998;-70
2022/06/16 05:01:48;;;;;;;;;;;17.90;65.70;;;;;;5103564;28;19927;-70
2022/06/16 05:04:14;;;;;;;;;;;17.90;65.60;;;;;;5096872;28;19989;-70
2022/06/16 05:06:40;;;;;;;;;;;17.90;65.60;;;;;;5101907;28;19916;-70
2022/06/16 05:09:05;;;;;;;;;;;17.90;65.50;;;;;;5102080;28;19915;-70
2022/06/16 05:11:31;;;;;;;;;;;17.90;65.60;;;;;;5104977;28;19918;-71
2022/06/16 05:14:00;;;;;;;;;;;17.90;65.50;;;;;;5103113;28;19938;-70
2022/06/16 05:16:26;;;;;;;;;;;17.90;65.70;;;;;;5098180;28;19991;-70
2022/06/16 05:18:53;;;;;;;;;;;17.90;65.70;;;;;;5105306;28;19918;-70
2022/06/16 05:21:18;;;;;;;;;;;17.90;65.80;;;;;;5097242;28;20634;-70
2022/06/16 05:23:45;;;;;;;;;;;17.80;65.80;;;;;;5105121;28;19920;-70
2022/06/16 05:26:11;;;;;;;;;;;17.80;65.90;;;;;;5097516;28;19939;-70
2022/06/16 05:28:36;;;;;;;;;;;17.80;65.90;;;;;;5102118;28;20338;-70
2022/06/16 05:31:02;;;;;;;;;;;17.80;65.90;;;;;;5100502;28;19969;-69
2022/06/16 05:33:28;;;;;;;;;;;17.80;65.90;;;;;;5104699;28;19923;-70
2022/06/16 05:35:57;;;;;;;;;;;17.80;65.90;;;;;;5100120;28;19995;-70
2022/06/16 05:38:23;;;;;;;;;;;17.80;65.80;;;;;;5102725;28;19919;-70
2022/06/16 05:40:54;;;;;;;;;;;17.80;65.90;;;;;;5101320;28;20324;-70
2022/06/16 05:43:20;;;;;;;;;;;17.80;65.80;;;;;;5103074;28;19916;-70
2022/06/16 05:45:45;;;;;;;;;;;17.80;65.80;;;;;;5100108;28;19992;-70
2022/06/16 05:48:11;;;;;;;;;;;17.80;65.90;;;;;;5103889;28;19927;-70
2022/06/16 05:50:36;;;;;;;;;;;17.80;65.70;;;;;;5102687;28;19916;-70
2022/06/16 05:53:02;;;;;;;;;;;17.80;65.80;;;;;;5101208;28;20627;-70
2022/06/16 05:55:27;;;;;;;;;;;17.80;65.70;;;;;;5099644;28;19918;-70
2022/06/16 05:57:53;;;;;;;;;;;17.80;65.80;;;;;;5102660;28;19964;-70
2022/06/16 06:00:18;;;;;;;;;;;17.80;65.80;;;;;;5103344;28;20452;-70
2022/06/16 06:02:44;;;;;;;;;;;17.80;65.80;;;;;;5101311;28;19923;-70
2022/06/16 06:05:11;;;;;;;;;;;17.80;65.50;;;;;;5104256;28;19916;-70
2022/06/16 06:18:36;;;;;;;;;;;17.80;65.50;;;;;;5106483;28;20476;-70
2022/06/16 06:21:02;;;;;;;;;;;17.80;65.70;;;;;;5104003;28;19911;-70
2022/06/16 06:23:27;;;;;;;;;;;17.80;65.70;;;;;;5101766;28;19920;-70
2022/06/16 06:25:53;;;;;;;;;;;17.80;65.70;;;;;;5107601;28;19936;-70
2022/06/16 06:28:20;;;;;;;;;;;17.80;65.60;;;;;;5101069;28;19919;-70
2022/06/16 06:30:45;;;;;;;;;;;17.80;65.70;;;;;;5104116;28;20022;-70
2022/06/16 06:33:11;;;;;;;;;;;17.70;65.50;;;;;;5101250;28;20030;-70
2022/06/16 06:35:36;;;;;;;;;;;17.80;65.60;;;;;;5108094;28;19915;-69
2022/06/16 06:38:02;;;;;;;;;;;17.80;65.60;;;;;;5101800;28;19916;-70
2022/06/16 06:40:29;;;;;;;;;;;17.80;65.70;;;;;;5108781;28;19911;-70
2022/06/16 06:42:55;;;;;;;;;;;17.80;65.60;;;;;;5100065;28;19952;-70
2022/06/16 06:45:21;;;;;;;;;;;17.80;65.60;;;;;;5106812;28;19916;-69
2022/06/16 06:47:47;;;;;;;;;;;17.80;65.80;;;;;;5103374;28;19924;-69
2022/06/16 06:50:33;;;;;;;;;;;17.80;65.70;;;;;;5106431;28;19912;-70
2022/06/16 06:52:58;;;;;;;;;;;17.80;65.70;;;;;;5103568;28;19928;-70
2022/06/16 06:55:24;;;;;;;;;;;17.80;65.70;;;;;;5107795;28;19961;-70
2022/06/16 06:57:52;;;;;;;;;;;17.80;65.70;;;;;;5100763;28;20487;-69
2022/06/16 07:00:22;;;;;;;;;;;17.80;65.60;;;;;;5106975;28;20455;-70
2022/06/16 07:02:47;;;;;;;;;;;17.90;65.70;;;;;;5103375;28;19915;-70
2022/06/16 07:05:13;;;;;;;;;;;17.90;65.70;;;;;;5102481;27;19930;-69
2022/06/16 07:07:39;;;;;;;;;;;17.90;65.60;;;;;;5104085;28;19922;-70
2022/06/16 07:10:06;;;;;;;;;;;17.80;65.70;;;;;;5101226;28;19920;-70
2022/06/16 07:12:32;;;;;;;;;;;17.90;65.70;;;;;;5107116;28;19918;-69
2022/06/16 07:14:58;;;;;;;;;;;17.80;65.70;;;;;;5100526;28;20479;-70
2022/06/16 07:17:23;;;;;;;;;;;17.90;65.60;;;;;;5100494;28;19923;-70
2022/06/16 07:19:50;;;;;;;;;;;17.90;65.60;;;;;;5100803;28;19908;-70
2022/06/16 07:22:16;;;;;;;;;;;17.90;65.70;;;;;;5106203;28;19955;-70
2022/06/16 07:24:41;;;;;;;;;;;17.90;65.80;;;;;;5104244;28;20677;-69
2022/06/16 07:27:07;;;;;;;;;;;17.90;65.70;;;;;;5105830;28;19916;-70
2022/06/16 07:29:33;;;;;;;;;;;17.90;65.70;;;;;;5097244;28;19912;-70
2022/06/16 07:31:58;;;;;;;;;;;17.90;65.60;;;;;;5101798;28;20020;-70
2022/06/16 07:34:24;;;;;;;;;;;17.90;65.70;;;;;;5102977;28;19925;-70
2022/06/16 07:36:50;;;;;;;;;;;17.90;65.70;;;;;;5102913;28;19924;-70
2022/06/16 07:39:15;;;;;;;;;;;17.90;65.50;;;;;;5107279;28;20363;-70
2022/06/16 07:41:41;;;;;;;;;;;18.00;65.50;;;;;;5100954;28;19916;-71
2022/06/16 07:44:08;;;;;;;;;;;18.00;65.60;;;;;;5107665;28;19984;-71
2022/06/16 07:46:35;;;;;;;;;;;18.00;65.60;;;;;;5103021;28;20582;-71
2022/06/16 07:49:01;;;;;;;;;;;18.00;65.50;;;;;;5107112;28;20012;-70
2022/06/16 07:51:26;;;;;;;;;;;18.00;65.30;;;;;;5101715;28;19915;-70
2022/06/16 07:53:52;;;;;;;;;;;18.00;65.50;;;;;;5106615;28;19915;-70
2022/06/16 07:56:17;;;;;;;;;;;18.00;65.50;;;;;;5103526;28;19916;-70
2022/06/16 07:58:43;;;;;;;;;;;18.10;65.50;;;;;;5106822;28;19912;-70
2022/06/16 08:01:09;;;;;;;;;;;18.10;65.40;;;;;;5102359;28;19915;-70
2022/06/16 08:03:35;;;;;;;;;;;18.10;65.20;;;;;;5104607;28;20028;-70
2022/06/16 08:06:04;;;;;;;;;;;18.10;65.30;;;;;;5098696;28;20030;-70
2022/06/16 08:08:29;;;;;;;;;;;18.10;65.20;;;;;;5105426;28;20427;-69
2022/06/16 08:10:55;;;;;;;;;;;18.10;65.20;;;;;;5100057;28;19923;-70
2022/06/16 08:13:21;;;;;;;;;;;18.20;65.30;;;;;;5105554;28;19942;-70
2022/06/16 08:15:48;;;;;;;;;;;18.20;65.20;;;;;;5103122;28;19965;-70
2022/06/16 08:18:15;;;;;;;;;;;18.20;65.00;;;;;;5101496;28;19912;-70
2022/06/16 08:20:41;;;;;;;;;;;18.20;65.10;;;;;;5099755;28;19912;-70
2022/06/16 08:23:07;;;;;;;;;;;18.20;65.10;;;;;;5098360;28;20330;-71
2022/06/16 08:25:32;;;;;;;;;;;18.20;65.10;;;;;;5105275;28;19919;-70
2022/06/16 08:27:58;;;;;;;;;;;18.30;65.10;;;;;;5102319;28;19926;-70
2022/06/16 08:30:24;;;;;;;;;;;18.30;65.00;;;;;;5105845;28;19996;-70
2022/06/16 08:32:50;;;;;;;;;;;18.30;64.90;;;;;;5094221;28;19950;-70
2022/06/16 08:35:16;;;;;;;;;;;18.30;64.90;;;;;;5105641;28;20515;-70
2022/06/16 08:37:42;;;;;;;;;;;18.30;64.70;;;;;;5099041;28;20029;-69
2022/06/16 08:40:08;;;;;;;;;;;18.40;64.70;;;;;;5102976;28;19916;-70
2022/06/16 08:42:33;;;;;;;;;;;18.40;64.70;;;;;;5100801;28;19923;-70
2022/06/16 08:45:06;;;;;;;;;;;18.40;64.50;;;;;;5105922;28;19991;-70
2022/06/16 08:47:37;;;;;;;;;;;18.40;64.50;;;;;;5094972;28;19942;-70
2022/06/16 08:50:23;;;;;;;;;;;18.40;64.30;;;;;;5105142;28;19918;-70
2022/06/16 08:52:54;;;;;;;;;;;18.50;64.30;;;;;;5098897;28;19916;-70
2022/06/16 08:55:26;;;;;;;;;;;18.40;64.00;;;;;;5103319;28;20453;-70
2022/06/16 08:58:23;;;;;;;;;;;18.50;64.00;;;;;;5099387;28;20048;-70
2022/06/16 09:00:53;;;;;;;;;;;18.60;64.00;;;;;;5081178;27;19991;-70
2022/06/16 09:03:28;;;;;;;;;;;18.50;63.70;;;;;;5098792;28;19965;-71
2022/06/16 09:05:57;;;;;;;;;;;18.60;63.70;;;;;;5104192;28;19911;-70
2022/06/16 09:08:35;;;;;;;;;;;18.60;63.60;;;;;;5100568;28;19911;-70
2022/06/16 09:11:13;;;;;;;;;;;18.60;63.50;;;;;;5101914;28;19939;-70
2022/06/16 09:13:40;;;;;;;;;;;18.70;63.40;;;;;;5100322;28;20006;-70
2022/06/16 09:16:26;;;;;;;;;;;18.70;63.30;;;;;;5104793;28;19911;-70
2022/06/16 09:18:57;;;;;;;;;;;18.70;63.30;;;;;;5098473;28;19912;-70
2022/06/16 09:21:28;;;;;;;;;;;18.80;63.00;;;;;;5099053;28;19912;-70
2022/06/16 09:24:12;;;;;;;;;;;18.80;63.00;;;;;;5099091;28;20328;-70
2022/06/16 09:26:53;;;;;;;;;;;18.80;63.00;;;;;;5100813;28;20389;-70
2022/06/16 09:29:42;;;;;;;;;;;18.90;63.10;;;;;;5098906;28;20504;-70
2022/06/16 09:32:15;;;;;;;;;;;18.90;62.80;;;;;;5108751;27;19912;-71
2022/06/16 09:34:45;;;;;;;;;;;19.00;62.80;;;;;;5098837;28;20029;-70
2022/06/16 09:37:15;;;;;;;;;;;19.00;62.70;;;;;;5103747;28;19912;-70
2022/06/16 09:39:43;;;;;;;;;;;19.00;62.60;;;;;;5100907;28;19920;-70
2022/06/16 09:42:37;;;;;;;;;;;19.10;62.50;;;;;;5103881;28;19927;-70
2022/06/16 09:45:02;;;;;;;;;;;19.10;62.50;;;;;;5099503;28;19995;-70
2022/06/16 09:47:31;;;;;;;;;;;19.20;62.40;;;;;;5103217;28;20773;-71
2022/06/16 09:50:05;;;;;;;;;;;19.20;62.20;;;;;;5099862;28;19923;-71
2022/06/16 09:52:51;;;;;;;;;;;19.30;62.20;;;;;;5101175;28;19955;-70
2022/06/16 09:55:28;;;;;;;;;;;19.30;62.00;;;;;;5097343;28;19918;-71
2022/06/16 09:57:56;;;;;;;;;;;19.40;61.50;;;;;;5095686;28;20386;-71
2022/06/16 10:00:23;;;;;;;;;;;19.40;61.70;;;;;;5100315;28;20738;-70
2022/06/16 10:02:51;;;;;;;;;;;19.50;61.70;;;;;;5103426;28;19969;-70
2022/06/16 10:05:37;;;;;;;;;;;19.50;61.60;;;;;;5098666;28;19920;-71
2022/06/16 10:08:18;;;;;;;;;;;19.60;61.60;;;;;;5093953;28;19939;-71
2022/06/16 10:11:13;;;;;;;;;;;19.60;61.10;;;;;;5098140;28;19913;-71
2022/06/16 10:13:41;;;;;;;;;;;19.60;60.30;;;;;;5063653;28;19917;-71
2022/06/16 10:16:07;;;;;;;;;;;19.70;60.70;;;;;;5099153;28;19912;-72
2022/06/16 10:18:33;;;;;;;;;;;19.80;60.90;;;;;;5103857;28;19996;-71
2022/06/16 10:20:58;;;;;;;;;;;19.90;60.80;;;;;;5094494;28;20336;-71
2022/06/16 10:23:44;;;;;;;;;;;19.90;60.90;;;;;;5100437;28;19968;-72
2022/06/16 10:26:10;;;;;;;;;;;20.00;60.80;;;;;;5096764;28;19916;-71
2022/06/16 10:28:38;;;;;;;;;;;20.10;60.60;;;;;;5102441;28;19998;-71
2022/06/16 10:31:05;;;;;;;;;;;20.10;60.60;;;;;;5099160;28;19938;-71
2022/06/16 10:33:33;;;;;;;;;;;20.20;60.50;;;;;;5102414;28;19919;-72
2022/06/16 10:35:59;;;;;;;;;;;20.30;60.40;;;;;;5103411;28;20356;-71
2022/06/16 10:38:41;;;;;;;;;;;20.40;60.30;;;;;;5092611;28;19923;-72
2022/06/16 10:41:21;;;;;;;;;;;20.50;60.30;;;;;;5099606;28;19922;-72
2022/06/16 10:43:47;;;;;;;;;;;20.60;60.40;;;;;;5097328;28;19916;-72
2022/06/16 10:46:14;;;;;;;;;;;20.70;60.50;;;;;;5103210;28;20016;-71
2022/06/16 10:48:44;;;;;;;;;;;20.80;60.20;;;;;;5097961;28;19911;-71
2022/06/16 10:51:29;;;;;;;;;;;20.90;60.60;;;;;;5102979;28;19970;-71
2022/06/16 10:54:19;;;;;;;;;;;21.00;60.40;;;;;;5096034;28;19917;-72
2022/06/16 10:56:45;;;;;;;;;;;21.10;60.30;;;;;;5102505;28;19912;-71
2022/06/16 10:59:19;;;;;;;;;;;21.30;60.30;;;;;;5099236;28;19915;-72
2022/06/16 11:01:47;;;;;;;;;;;21.40;60.10;;;;;;5100011;28;19916;-71
2022/06/16 11:04:17;;;;;;;;;;;21.50;60.10;;;;;;5100660;28;19926;-71
2022/06/16 11:06:48;;;;;;;;;;;21.60;60.10;;;;;;5102768;28;19961;-72
2022/06/16 11:09:17;;;;;;;;;;;21.70;60.40;;;;;;5099473;28;19920;-71
2022/06/16 11:11:52;;;;;;;;;;;21.80;59.70;;;;;;5106027;28;19911;-71
2022/06/16 11:14:35;;;;;;;;;;;21.90;59.80;;;;;;5101091;28;19916;-71
2022/06/16 11:17:05;;;;;;;;;;;22.00;59.90;;;;;;5105876;28;19912;-71
2022/06/16 11:19:35;;;;;;;;;;;22.10;59.60;;;;;;5098541;28;19983;-71
2022/06/16 11:22:09;;;;;;;;;;;22.20;60.50;;;;;;5105734;28;19915;-72
2022/06/16 11:24:37;;;;;;;;;;;22.30;59.80;;;;;;5098615;28;20031;-71
2022/06/16 11:27:10;;;;;;;;;;;22.40;59.70;;;;;;5106568;28;19925;-71
2022/06/16 11:29:36;;;;;;;;;;;22.50;59.50;;;;;;5100596;28;19915;-72
2022/06/16 11:32:05;;;;;;;;;;;22.60;59.60;;;;;;5103433;28;20645;-72
2022/06/16 11:34:32;;;;;;;;;;;22.70;59.70;;;;;;5101129;28;19911;-72
2022/06/16 11:37:07;;;;;;;;;;;22.80;59.70;;;;;;5100164;28;19931;-72
2022/06/16 11:39:47;;;;;;;;;;;22.80;59.40;;;;;;5097393;28;20027;-72
2022/06/16 11:42:20;;;;;;;;;;;23.00;59.80;;;;;;5106712;28;19916;-72
2022/06/16 11:44:57;;;;;;;;;;;23.00;59.30;;;;;;5099180;28;20380;-72
2022/06/16 11:47:37;;;;;;;;;;;23.10;59.10;;;;;;5103221;28;19908;-72
2022/06/16 11:50:13;;;;;;;;;;;23.20;59.20;;;;;;5099724;28;19916;-72
2022/06/16 11:52:47;;;;;;;;;;;23.30;59.20;;;;;;5103104;28;19975;-72
2022/06/16 11:55:31;;;;;;;;;;;23.40;59.40;;;;;;5097492;28;19915;-72
2022/06/16 11:58:03;;;;;;;;;;;23.40;59.40;;;;;;5104089;28;20404;-72
2022/06/16 12:00:38;;;;;;;;;;;23.50;59.50;;;;;;5099098;28;20034;-71
2022/06/16 12:03:18;;;;;;;;;;;23.60;59.40;;;;;;5106122;28;20364;-72
2022/06/16 12:05:53;;;;;;;;;;;23.70;59.10;;;;;;5101223;28;19920;-72
2022/06/16 12:08:39;;;;;;;;;;;23.70;59.50;;;;;;5105258;28;20770;-72
2022/06/16 12:11:10;;;;;;;;;;;23.80;59.80;;;;;;5101670;28;19920;-72
2022/06/16 12:13:46;;;;;;;;;;;23.90;59.70;;;;;;5104012;28;19912;-72
2022/06/16 12:16:15;;;;;;;;;;;24.00;60.00;;;;;;5101378;28;19960;-72
2022/06/16 12:18:59;;;;;;;;;;;24.10;59.70;;;;;;5101077;28;19911;-72
2022/06/16 12:21:34;;;;;;;;;;;24.10;59.80;;;;;;5096757;28;19927;-72
2022/06/16 12:24:18;;;;;;;;;;;24.20;59.70;;;;;;5105719;28;19920;-72
2022/06/16 12:26:57;;;;;;;;;;;24.30;59.60;;;;;;5102061;28;20281;-72
2022/06/16 12:29:30;;;;;;;;;;;24.30;59.50;;;;;;5103860;28;19923;-72
2022/06/16 12:31:58;;;;;;;;;;;24.40;59.40;;;;;;5100809;28;20420;-73
2022/06/16 12:34:36;;;;;;;;;;;24.50;59.50;;;;;;5099329;28;19911;-72
2022/06/16 12:37:08;;;;;;;;;;;24.50;59.50;;;;;;5100277;28;19919;-72
2022/06/16 12:39:43;;;;;;;;;;;24.60;59.50;;;;;;5105491;28;20008;-72
2022/06/16 12:42:11;;;;;;;;;;;24.70;59.40;;;;;;5101518;28;19977;-72
2022/06/16 12:44:46;;;;;;;;;;;24.70;59.40;;;;;;5105049;28;19942;-73
2022/06/16 12:47:20;;;;;;;;;;;24.70;59.30;;;;;;5100764;28;19912;-72
2022/06/16 12:49:54;;;;;;;;;;;24.80;59.70;;;;;;5105042;28;19911;-73
2022/06/16 12:52:23;;;;;;;;;;;24.90;59.60;;;;;;5100952;28;19957;-73
2022/06/16 12:54:58;;;;;;;;;;;25.00;59.30;;;;;;5103239;28;20485;-73
2022/06/16 12:57:31;;;;;;;;;;;25.00;60.00;;;;;;5100353;28;20261;-72
2022/06/16 13:00:01;;;;;;;;;;;25.00;59.30;;;;;;5104727;28;19912;-72
2022/06/16 13:02:30;;;;;;;;;;;25.10;59.40;;;;;;5100415;28;19939;-72
2022/06/16 13:04:56;;;;;;;;;;;25.20;59.50;;;;;;5104842;28;19954;-73
2022/06/16 13:07:23;;;;;;;;;;;25.30;59.30;;;;;;5099585;28;19924;-72
2022/06/16 13:09:49;;;;;;;;;;;25.30;59.10;;;;;;5104548;28;19919;-72
2022/06/16 13:12:24;;;;;;;;;;;25.40;58.90;;;;;;5102448;28;19916;-72
2022/06/16 13:14:53;;;;;;;;;;;25.40;59.00;;;;;;5103139;28;20056;-72
2022/06/16 13:17:22;;;;;;;;;;;25.50;58.90;;;;;;5103611;27;19918;-72
2022/06/16 13:19:51;;;;;;;;;;;25.50;59.20;;;;;;5096863;28;20683;-73
2022/06/16 13:22:24;;;;;;;;;;;25.60;59.30;;;;;;5105020;28;19911;-73
2022/06/16 13:24:50;;;;;;;;;;;25.60;59.10;;;;;;5100696;28;20402;-73
2022/06/16 13:27:26;;;;;;;;;;;25.70;58.90;;;;;;5104591;28;19950;-73
2022/06/16 13:29:51;;;;;;;;;;;25.70;58.70;;;;;;5100345;28;19916;-72
2022/06/16 13:32:23;;;;;;;;;;;25.80;58.50;;;;;;5098486;28;19944;-72
2022/06/16 13:34:48;;;;;;;;;;;25.90;58.50;;;;;;5100551;28;19916;-73
2022/06/16 13:37:33;;;;;;;;;;;25.90;58.10;;;;;;5098802;28;20144;-72
2022/06/16 13:40:04;;;;;;;;;;;26.00;57.40;;;;;;5095607;28;20446;-72
2022/06/16 13:42:50;;;;;;;;;;;26.10;57.80;;;;;;5102612;28;19912;-73
2022/06/16 13:45:45;;;;;;;;;;;26.00;58.00;;;;;;5099428;28;19983;-72
2022/06/16 13:48:16;;;;;;;;;;;26.10;57.80;;;;;;5096129;28;19915;-72
2022/06/16 13:50:41;;;;;;;;;;;26.20;57.50;;;;;;5099086;28;19926;-73
2022/06/16 13:53:07;;;;;;;;;;;26.30;57.50;;;;;;5103858;28;19919;-73
2022/06/16 13:55:36;;;;;;;;;;;26.30;57.50;;;;;;5100145;28;19915;-73
2022/06/16 13:58:25;;;;;;;;;;;26.40;57.60;;;;;;5102894;28;20614;-72
2022/06/16 14:01:03;;;;;;;;;;;26.50;56.80;;;;;;5086815;28;19916;-73
2022/06/16 14:03:30;;;;;;;;;;;26.60;56.50;;;;;;5101753;28;19920;-73
2022/06/16 14:06:01;;;;;;;;;;;26.70;56.70;;;;;;5096783;28;20287;-73
2022/06/16 14:08:27;;;;;;;;;;;26.70;56.80;;;;;;5102545;28;19992;-73
2022/06/16 14:10:54;;;;;;;;;;;26.80;56.10;;;;;;5098711;28;19928;-73
2022/06/16 14:13:25;;;;;;;;;;;26.80;56.70;;;;;;5103760;28;20264;-73
2022/06/16 14:15:56;;;;;;;;;;;26.90;56.70;;;;;;5100649;28;19923;-72
2022/06/16 14:18:49;;;;;;;;;;;26.90;55.90;;;;;;5101925;28;19991;-73
2022/06/16 14:21:16;;;;;;;;;;;27.00;55.90;;;;;;5092097;28;20444;-73
2022/06/16 14:23:44;;;;;;;;;;;27.00;55.70;;;;;;5099157;28;20056;-73
2022/06/16 14:26:18;;;;;;;;;;;27.00;55.60;;;;;;5100852;28;19918;-73
2022/06/16 14:28:44;;;;;;;;;;;26.90;55.90;;;;;;5103886;28;19915;-72
2022/06/16 14:31:20;;;;;;;;;;;26.80;56.30;;;;;;5100707;28;19947;-72
2022/06/16 14:34:02;;;;;;;;;;;26.90;56.30;;;;;;5104143;28;20030;-72
2022/06/16 14:36:37;;;;;;;;;;;27.00;55.60;;;;;;5102831;28;19919;-73
2022/06/16 14:39:05;;;;;;;;;;;27.10;55.00;;;;;;5105745;28;19919;-72
2022/06/16 14:41:34;;;;;;;;;;;27.30;54.80;;;;;;5101775;28;19915;-72
2022/06/16 14:44:02;;;;;;;;;;;27.40;54.90;;;;;;5106616;28;20269;-72
2022/06/16 14:46:43;;;;;;;;;;;27.60;54.30;;;;;;5104554;28;19915;-72
2022/06/16 14:49:11;;;;;;;;;;;27.80;54.00;;;;;;5102336;28;20496;-72
2022/06/16 14:51:38;;;;;;;;;;;28.00;53.70;;;;;;5100681;28;19920;-72